Time;durP1;ratioP1;P1;durP2;ratioP2;P2;SDS_P1;SDS_P2;PMS_P1;PMS_P2;Temp;Humidity;BMP_temperature;BMP_pressure;BME280_temperature;BME280_humidity;BME280_pressure;Samples;Min_cycle;Max_cycle;Signal;HPM_P1;HPM_P2
2023/07/28 00:02:25;;;;;;;4.38;2.70;;;15.70;99.90;;;;;;5046417;28;20481;-57
2023/07/28 00:04:53;;;;;;;9.73;4.15;;;15.70;99.90;;;;;;5053961;28;20056;-59
2023/07/28 00:07:20;;;;;;;4.65;2.60;;;15.70;99.90;;;;;;5047139;28;20036;-56
2023/07/28 00:09:48;;;;;;;3.60;2.53;;;15.70;99.90;;;;;;5048280;28;20048;-61
2023/07/28 00:12:16;;;;;;;4.55;2.65;;;15.70;99.90;;;;;;5048107;28;20057;-61
2023/07/28 00:14:45;;;;;;;5.65;3.30;;;15.70;99.90;;;;;;5048366;28;20047;-63
2023/07/28 00:17:12;;;;;;;3.17;2.45;;;15.60;99.90;;;;;;5047324;28;20048;-64
2023/07/28 00:19:40;;;;;;;5.25;2.97;;;15.60;99.90;;;;;;5047228;28;20064;-65
2023/07/28 00:22:08;;;;;;;4.60;2.65;;;15.60;99.90;;;;;;5046505;28;20419;-66
2023/07/28 00:24:35;;;;;;;5.47;2.92;;;15.70;99.90;;;;;;5048332;28;20048;-66
2023/07/28 00:27:03;;;;;;;4.15;2.72;;;15.70;99.90;;;;;;5045093;28;20052;-64
2023/07/28 00:29:31;;;;;;;5.63;3.15;;;15.60;99.90;;;;;;5047044;28;20064;-61
2023/07/28 00:31:59;;;;;;;5.93;3.10;;;15.60;99.90;;;;;;5048594;28;20060;-64
2023/07/28 00:34:27;;;;;;;5.90;2.65;;;15.60;99.90;;;;;;5054988;28;20036;-66
2023/07/28 00:36:54;;;;;;;4.45;2.85;;;15.60;99.90;;;;;;5046894;28;20041;-65
2023/07/28 00:39:22;;;;;;;5.15;2.97;;;15.50;99.90;;;;;;5048244;28;20041;-58
2023/07/28 00:41:50;;;;;;;9.05;3.80;;;15.50;99.90;;;;;;5045948;28;20053;-64
2023/07/28 00:44:18;;;;;;;3.25;2.50;;;15.50;99.90;;;;;;5048252;28;20033;-64
2023/07/28 00:46:46;;;;;;;6.50;2.72;;;15.40;99.90;;;;;;5046535;28;20923;-59
2023/07/28 00:49:14;;;;;;;6.68;3.55;;;15.40;99.90;;;;;;5043805;28;20052;-62
2023/07/28 00:51:41;;;;;;;5.38;3.08;;;15.40;99.90;;;;;;5047047;28;20041;-59
2023/07/28 00:54:10;;;;;;;5.72;3.15;;;15.40;99.90;;;;;;5049052;28;20057;-58
2023/07/28 00:56:38;;;;;;;5.63;2.78;;;15.30;99.90;;;;;;5045255;28;20484;-65
2023/07/28 00:59:06;;;;;;;4.25;3.13;;;15.30;99.90;;;;;;5029936;28;20045;-65
2023/07/28 01:01:34;;;;;;;4.45;2.88;;;15.30;99.90;;;;;;5045722;28;20481;-65
2023/07/28 01:04:01;;;;;;;4.07;3.00;;;15.20;99.90;;;;;;5045198;28;20484;-65
2023/07/28 01:06:53;;;;;;;4.93;2.70;;;15.20;99.90;;;;;;5042324;28;20053;-66
2023/07/28 01:09:26;;;;;;;7.55;3.30;;;15.20;99.90;;;;;;5047656;28;20063;-65
2023/07/28 01:11:56;;;;;;;9.57;3.00;;;15.10;99.90;;;;;;5041987;28;20424;-65
2023/07/28 01:14:24;;;;;;;6.75;3.40;;;15.10;99.90;;;;;;5047251;28;20411;-64
2023/07/28 01:16:52;;;;;;;4.57;2.70;;;15.00;99.90;;;;;;5043177;28;20041;-65
2023/07/28 01:19:22;;;;;;;4.38;2.95;;;15.00;99.90;;;;;;5047418;28;20040;-66
2023/07/28 01:22:09;;;;;;;4.43;2.90;;;15.00;99.90;;;;;;5043333;28;20160;-66
2023/07/28 01:25:16;;;;;;;5.57;3.25;;;14.90;99.90;;;;;;5043536;28;20040;-64
2023/07/28 01:27:45;;;;;;;4.25;3.13;;;14.90;99.90;;;;;;5043394;28;20071;-61
2023/07/28 01:30:13;;;;;;;5.70;3.42;;;14.90;99.90;;;;;;5043032;28;20040;-65
2023/07/28 01:32:41;;;;;;;5.15;3.05;;;14.80;99.90;;;;;;5046158;28;20721;-64
2023/07/28 01:35:08;;;;;;;6.57;2.75;;;14.80;99.90;;;;;;5052549;28;20041;-65
2023/07/28 01:37:36;;;;;;;6.32;3.05;;;14.70;99.90;;;;;;5050605;28;20500;-63
2023/07/28 01:40:04;;;;;;;6.43;3.33;;;14.70;99.90;;;;;;5050859;28;20041;-57
2023/07/28 01:42:32;;;;;;;5.07;3.30;;;14.70;99.90;;;;;;5050624;28;20048;-65
2023/07/28 01:44:59;;;;;;;6.30;3.15;;;14.70;99.90;;;;;;5050569;28;20041;-65
2023/07/28 01:47:27;;;;;;;10.02;4.15;;;14.60;99.90;;;;;;5046940;28;20049;-65
2023/07/28 01:49:55;;;;;;;8.20;4.03;;;14.70;99.90;;;;;;5054742;28;20048;-66
2023/07/28 01:52:23;;;;;;;10.77;3.53;;;14.60;99.90;;;;;;5054847;28;20451;-65
2023/07/28 01:54:51;;;;;;;9.35;3.90;;;14.70;99.90;;;;;;5053169;28;20057;-66
2023/07/28 01:57:18;;;;;;;4.28;3.13;;;14.60;99.90;;;;;;5052860;28;20045;-62
2023/07/28 01:59:46;;;;;;;5.75;3.85;;;14.70;99.90;;;;;;5053302;28;20056;-61
2023/07/28 02:02:13;;;;;;;9.75;3.63;;;14.60;99.90;;;;;;5050881;28;20404;-65
2023/07/28 02:04:41;;;;;;;4.85;3.55;;;14.60;99.90;;;;;;5057678;28;20040;-64
2023/07/28 02:07:09;;;;;;;7.38;3.80;;;14.60;99.90;;;;;;5052588;28;20056;-66
2023/07/28 02:09:37;;;;;;;4.97;3.20;;;14.60;99.90;;;;;;5053672;28;20041;-64
2023/07/28 02:12:05;;;;;;;6.20;3.63;;;14.60;99.90;;;;;;5053917;28;20041;-65
2023/07/28 02:14:32;;;;;;;8.32;3.58;;;14.50;99.90;;;;;;5053039;28;20044;-65
2023/07/28 02:17:00;;;;;;;7.95;3.95;;;14.50;99.90;;;;;;5052344;28;20095;-64
2023/07/28 02:19:28;;;;;;;4.57;3.45;;;14.50;99.90;;;;;;5052132;28;20048;-64
2023/07/28 02:21:55;;;;;;;7.10;3.70;;;14.50;99.90;;;;;;5053345;28;20040;-65
2023/07/28 02:24:23;;;;;;;8.85;3.33;;;14.50;99.90;;;;;;5054091;28;20052;-57
2023/07/28 02:26:51;;;;;;;9.45;3.50;;;14.50;99.90;;;;;;5049916;28;20401;-65
2023/07/28 02:29:18;;;;;;;12.73;4.40;;;14.50;99.90;;;;;;5051552;28;20048;-62
2023/07/28 02:31:46;;;;;;;7.65;3.92;;;14.40;99.90;;;;;;5052427;28;20041;-56
2023/07/28 02:34:14;;;;;;;8.23;4.15;;;14.40;99.90;;;;;;5054432;28;20052;-58
2023/07/28 02:36:41;;;;;;;13.57;4.53;;;14.40;99.90;;;;;;5052839;28;20037;-57
2023/07/28 02:39:09;;;;;;;6.80;4.65;;;14.40;99.90;;;;;;5052828;28;20037;-62
2023/07/28 02:41:37;;;;;;;9.25;4.60;;;14.30;99.90;;;;;;5050092;28;20043;-59
2023/07/28 02:44:04;;;;;;;9.07;4.18;;;14.30;99.90;;;;;;5053621;28;20049;-59
2023/07/28 02:46:32;;;;;;;7.55;4.43;;;14.30;99.90;;;;;;5051289;28;20497;-57
2023/07/28 02:49:02;;;;;;;11.05;5.03;;;14.30;99.90;;;;;;5051585;28;20044;-59
2023/07/28 02:51:30;;;;;;;7.50;4.50;;;14.30;99.90;;;;;;5053447;28;20045;-57
2023/07/28 02:53:58;;;;;;;8.25;3.78;;;14.20;99.90;;;;;;5053261;28;20404;-58
2023/07/28 02:56:26;;;;;;;5.90;3.58;;;13.00;99.90;;;;;;5051024;28;20044;-59
2023/07/28 02:58:54;;;;;;;7.93;4.55;;;14.20;99.90;;;;;;5050661;28;20480;-57
2023/07/28 03:01:21;;;;;;;12.60;4.43;;;14.10;99.90;;;;;;5052534;28;20044;-58
2023/07/28 03:03:49;;;;;;;12.10;4.55;;;14.10;99.90;;;;;;5051724;28;20048;-59
2023/07/28 03:06:17;;;;;;;7.95;4.60;;;14.10;99.90;;;;;;5033563;28;20048;-55
2023/07/28 03:08:45;;;;;;;8.95;4.97;;;14.00;99.90;;;;;;5051985;28;20054;-56
2023/07/28 03:11:45;;;;;;;7.47;4.15;;;14.00;99.90;;;;;;5059592;28;20048;-57
2023/07/28 03:14:13;;;;;;;7.20;3.88;;;14.00;99.90;;;;;;5049936;28;20048;-56
2023/07/28 03:16:41;;;;;;;7.97;4.47;;;13.90;99.90;;;;;;5045955;28;20112;-57
2023/07/28 03:19:09;;;;;;;8.85;4.35;;;13.90;99.90;;;;;;5050714;28;20080;-57
2023/07/28 03:21:37;;;;;;;9.43;4.70;;;13.80;99.90;;;;;;5053718;28;20041;-56
2023/07/28 03:24:06;;;;;;;7.20;4.60;;;13.80;99.90;;;;;;5043446;28;20405;-56
2023/07/28 03:26:34;;;;;;;7.25;4.07;;;13.80;99.90;;;;;;5051450;28;20051;-56
2023/07/28 03:29:03;;;;;;;9.98;4.00;;;13.80;99.90;;;;;;5051825;28;20567;-55
2023/07/28 03:31:31;;;;;;;5.60;3.17;;;13.70;99.90;;;;;;5053297;28;20056;-56
2023/07/28 03:33:59;;;;;;;10.18;4.00;;;13.70;99.90;;;;;;5050435;28;20048;-65
2023/07/28 03:36:27;;;;;;;5.35;3.58;;;13.70;99.90;;;;;;5035098;28;20049;-61
2023/07/28 03:38:55;;;;;;;5.45;3.63;;;13.60;99.90;;;;;;5051539;28;20048;-65
2023/07/28 03:41:24;;;;;;;13.75;4.95;;;13.60;99.90;;;;;;5051589;28;20468;-64
2023/07/28 03:43:51;;;;;;;6.65;3.65;;;13.60;99.90;;;;;;5051642;28;20045;-66
2023/07/28 03:46:19;;;;;;;9.45;4.15;;;13.60;99.90;;;;;;5051324;28;20045;-65
2023/07/28 03:48:47;;;;;;;9.88;4.30;;;13.50;99.90;;;;;;5051267;28;20041;-64
2023/07/28 03:51:14;;;;;;;6.40;3.78;;;13.50;99.90;;;;;;5051358;28;20392;-64
2023/07/28 03:53:42;;;;;;;8.95;3.92;;;13.50;99.90;;;;;;5047121;28;20060;-64
2023/07/28 03:56:10;;;;;;;10.48;4.07;;;13.40;99.90;;;;;;5052556;28;20048;-62
2023/07/28 03:58:38;;;;;;;5.45;3.40;;;13.40;99.90;;;;;;5051192;28;20053;-60
2023/07/28 04:01:07;;;;;;;11.70;3.95;;;13.40;99.90;;;;;;5034570;28;20396;-61
2023/07/28 04:03:35;;;;;;;7.47;3.90;;;13.40;99.90;;;;;;5048746;28;20041;-63
2023/07/28 04:06:11;;;;;;;10.70;3.60;;;13.40;99.90;;;;;;5052676;28;20392;-64
2023/07/28 04:08:40;;;;;;;7.82;3.90;;;13.30;99.90;;;;;;5051131;28;20481;-64
2023/07/28 04:11:07;;;;;;;8.23;4.22;;;13.30;99.90;;;;;;5051838;28;20037;-58
2023/07/28 04:13:35;;;;;;;8.30;4.07;;;13.30;99.90;;;;;;5050208;28;20048;-65
2023/07/28 04:16:03;;;;;;;14.93;4.57;;;13.30;99.90;;;;;;5050723;28;20078;-61
2023/07/28 04:18:31;;;;;;;5.85;4.00;;;13.30;99.90;;;;;;5051702;28;20067;-61
2023/07/28 04:20:59;;;;;;;8.13;4.13;;;13.30;99.90;;;;;;5050256;28;20032;-62
2023/07/28 04:23:27;;;;;;;5.72;3.55;;;13.40;99.90;;;;;;5047112;28;20045;-64
2023/07/28 04:25:55;;;;;;;5.85;3.75;;;13.30;99.90;;;;;;5048887;28;20041;-63
2023/07/28 04:28:24;;;;;;;8.00;3.90;;;13.30;99.90;;;;;;5050680;28;20369;-62
2023/07/28 04:30:53;;;;;;;7.28;3.85;;;13.30;99.90;;;;;;5050679;28;20051;-64
2023/07/28 04:33:44;;;;;;;5.93;3.13;;;13.30;99.90;;;;;;5048142;28;20064;-65
2023/07/28 04:36:11;;;;;;;10.75;3.97;;;13.30;99.90;;;;;;5052016;28;20132;-66
2023/07/28 04:38:39;;;;;;;6.13;3.22;;;13.30;99.90;;;;;;5050622;28;20045;-64
2023/07/28 04:41:07;;;;;;;8.45;3.40;;;13.30;99.90;;;;;;5050692;28;20533;-65
2023/07/28 04:43:47;;;;;;;8.27;3.10;;;13.30;99.90;;;;;;5049189;28;20045;-64
2023/07/28 04:46:15;;;;;;;7.10;3.38;;;13.40;99.90;;;;;;5051503;28;20357;-63
2023/07/28 04:48:48;;;;;;;8.77;3.13;;;13.40;99.90;;;;;;5042403;28;20045;-64
2023/07/28 04:51:36;;;;;;;9.57;4.03;;;13.40;99.90;;;;;;5053497;28;20416;-62
2023/07/28 04:54:20;;;;;;;8.30;3.85;;;13.50;99.90;;;;;;5045799;28;20068;-64
2023/07/28 04:56:50;;;;;;;8.35;4.68;;;13.60;99.90;;;;;;5048079;28;20033;-65
2023/07/28 04:59:19;;;;;;;6.30;3.72;;;13.70;99.90;;;;;;5046222;28;20044;-64
2023/07/28 05:01:46;;;;;;;8.15;4.28;;;13.80;99.90;;;;;;5044422;28;20059;-65
2023/07/28 05:04:14;;;;;;;8.80;5.05;;;13.90;99.90;;;;;;5038662;28;20060;-56
2023/07/28 05:06:42;;;;;;;9.38;5.53;;;14.00;99.90;;;;;;5040405;28;20053;-59
2023/07/28 05:09:09;;;;;;;12.25;6.68;;;14.10;99.90;;;;;;5043129;28;20049;-55
2023/07/28 05:11:38;;;;;;;11.38;6.47;;;14.20;99.90;;;;;;5043553;28;20052;-58
2023/07/28 05:14:09;;;;;;;9.52;6.25;;;14.20;99.90;;;;;;5042879;28;20541;-58
2023/07/28 05:16:37;;;;;;;9.77;6.45;;;14.30;99.90;;;;;;5040833;28;20044;-57
2023/07/28 05:19:11;;;;;;;17.13;7.15;;;14.40;99.90;;;;;;5033211;28;20053;-56
2023/07/28 05:21:39;;;;;;;9.73;6.13;;;14.40;99.90;;;;;;5043572;28;20048;-58
2023/07/28 05:24:09;;;;;;;13.23;6.78;;;14.50;99.90;;;;;;5045999;28;20048;-59
2023/07/28 05:26:37;;;;;;;11.13;6.30;;;14.60;99.90;;;;;;5046546;28;20053;-59
2023/07/28 05:29:05;;;;;;;13.05;6.45;;;14.60;99.90;;;;;;5035425;28;20057;-59
2023/07/28 05:31:33;;;;;;;10.32;6.60;;;14.70;99.90;;;;;;5040230;28;20040;-55
2023/07/28 05:34:04;;;;;;;12.45;7.22;;;14.80;99.90;;;;;;5052028;28;20063;-59
2023/07/28 05:36:32;;;;;;;13.40;6.60;;;14.90;99.90;;;;;;5049019;28;20393;-61
2023/07/28 05:39:02;;;;;;;9.40;5.80;;;14.90;99.90;;;;;;5042392;28;20269;-58
2023/07/28 05:41:39;;;;;;;11.60;6.28;;;15.00;99.90;;;;;;5042700;28;20396;-61
2023/07/28 05:44:09;;;;;;;12.57;6.35;;;15.10;99.90;;;;;;5045053;28;20044;-56
2023/07/28 05:46:38;;;;;;;12.02;6.82;;;15.20;99.90;;;;;;5040836;28;20400;-61
2023/07/28 05:49:06;;;;;;;11.52;7.03;;;15.20;99.90;;;;;;5042694;28;20037;-57
2023/07/28 05:51:33;;;;;;;12.73;6.38;;;15.20;99.90;;;;;;5044093;28;20315;-56
2023/07/28 05:54:02;;;;;;;10.50;6.65;;;15.30;99.90;;;;;;5043638;28;20045;-60
2023/07/28 05:56:30;;;;;;;9.50;5.70;;;15.30;99.90;;;;;;5041118;28;20496;-61
2023/07/28 05:58:58;;;;;;;9.18;5.05;;;15.30;99.90;;;;;;5029296;28;20041;-56
2023/07/28 06:01:27;;;;;;;8.10;5.18;;;15.40;99.90;;;;;;5045212;28;20056;-63
2023/07/28 06:04:17;;;;;;;7.28;4.90;;;15.40;99.90;;;;;;5052173;28;20060;-55
2023/07/28 06:06:48;;;;;;;7.28;4.70;;;15.50;99.90;;;;;;5044159;28;20053;-54
2023/07/28 06:09:17;;;;;;;10.32;4.78;;;15.50;99.90;;;;;;5045641;28;20041;-56
2023/07/28 06:11:45;;;;;;;5.32;4.32;;;15.60;99.90;;;;;;5045880;28;20052;-60
2023/07/28 06:14:13;;;;;;;6.03;4.10;;;15.60;99.90;;;;;;5045538;28;20052;-59
2023/07/28 06:16:41;;;;;;;8.57;3.58;;;15.70;99.90;;;;;;5040140;28;20053;-61
2023/07/28 06:19:09;;;;;;;5.22;3.28;;;15.70;99.90;;;;;;5045026;28;20060;-59
2023/07/28 06:21:39;;;;;;;6.30;3.55;;;15.70;99.90;;;;;;5043039;28;20485;-57
2023/07/28 06:24:08;;;;;;;4.55;3.10;;;15.80;99.90;;;;;;5043637;28;20045;-62
2023/07/28 06:26:37;;;;;;;5.88;3.30;;;15.80;99.90;;;;;;5040844;28;20036;-59
2023/07/28 06:29:05;;;;;;;5.40;2.90;;;15.80;99.90;;;;;;5041640;28;20072;-65
2023/07/28 06:31:33;;;;;;;4.88;2.63;;;15.90;99.90;;;;;;5040502;28;20059;-58
2023/07/28 06:34:01;;;;;;;9.65;2.90;;;15.90;99.90;;;;;;5041102;28;20037;-61
2023/07/28 06:36:29;;;;;;;4.25;2.90;;;15.90;99.90;;;;;;5041244;28;20516;-61
2023/07/28 06:38:59;;;;;;;5.10;3.03;;;15.90;99.90;;;;;;5045679;28;20045;-60
2023/07/28 06:41:27;;;;;;;4.38;2.88;;;15.90;99.90;;;;;;5048046;28;20033;-61
2023/07/28 06:43:59;;;;;;;3.28;2.83;;;16.00;99.90;;;;;;5045374;28;20045;-64
2023/07/28 06:46:30;;;;;;;3.97;2.67;;;16.00;99.90;;;;;;5046809;28;20656;-65
2023/07/28 06:48:59;;;;;;;3.22;2.35;;;16.00;99.90;;;;;;5039901;28;20512;-62
2023/07/28 06:51:27;;;;;;;4.53;2.20;;;16.10;99.90;;;;;;5048659;28;20048;-64
2023/07/28 06:53:54;;;;;;;3.13;2.33;;;16.10;99.90;;;;;;5053444;28;20045;-62
2023/07/28 06:56:22;;;;;;;3.38;2.47;;;16.20;99.90;;;;;;5049216;28;20052;-64
2023/07/28 06:58:51;;;;;;;2.78;2.30;;;16.20;99.90;;;;;;5048421;28;20049;-62
2023/07/28 07:01:38;;;;;;;5.65;2.88;;;16.30;99.90;;;;;;5030739;28;20055;-63
2023/07/28 07:04:07;;;;;;;3.45;2.67;;;16.30;99.90;;;;;;5051939;28;20041;-65
2023/07/28 07:06:35;;;;;;;3.33;2.50;;;16.40;99.90;;;;;;5031530;28;20410;-65
2023/07/28 07:09:05;;;;;;;4.18;2.50;;;16.40;99.90;;;;;;5047746;28;20049;-63
2023/07/28 07:11:32;;;;;;;3.95;2.33;;;16.50;99.90;;;;;;5048428;28;20044;-59
2023/07/28 07:14:00;;;;;;;3.90;1.83;;;16.60;99.90;;;;;;5051124;28;20052;-56
2023/07/28 07:16:28;;;;;;;2.80;1.55;;;16.60;99.90;;;;;;5048312;28;20403;-58
2023/07/28 07:18:56;;;;;;;2.70;2.05;;;16.70;99.90;;;;;;5048803;28;20048;-59
2023/07/28 07:21:24;;;;;;;4.95;2.20;;;16.70;99.90;;;;;;5043630;28;20045;-57
2023/07/28 07:23:52;;;;;;;5.70;1.80;;;16.80;99.90;;;;;;5048073;28;20045;-57
2023/07/28 07:26:26;;;;;;;7.28;2.22;;;16.90;99.90;;;;;;5046830;28;20534;-66
2023/07/28 07:28:53;;;;;;;2.65;1.30;;;16.90;99.90;;;;;;5049300;28;20037;-65
2023/07/28 07:31:21;;;;;;;2.80;1.80;;;17.00;99.90;;;;;;5041941;28;20068;-60
2023/07/28 07:33:50;;;;;;;1.77;1.35;;;17.10;99.90;;;;;;5047863;28;20041;-65
2023/07/28 07:36:19;;;;;;;4.93;1.40;;;17.10;99.90;;;;;;5049828;28;20506;-65
2023/07/28 07:38:48;;;;;;;3.15;1.40;;;17.30;99.90;;;;;;5049676;28;20392;-66
2023/07/28 07:41:19;;;;;;;4.60;1.52;;;17.30;99.90;;;;;;5044848;28;20044;-61
2023/07/28 07:43:48;;;;;;;1.42;0.90;;;17.30;99.90;;;;;;5050490;28;20041;-66
2023/07/28 07:46:16;;;;;;;0.98;0.90;;;17.30;99.90;;;;;;5046960;28;20489;-65
2023/07/28 07:48:45;;;;;;;3.33;1.02;;;17.30;99.90;;;;;;5047388;28;20041;-62
2023/07/28 07:51:12;;;;;;;1.95;0.80;;;17.30;99.90;;;;;;5041658;28;20049;-61
2023/07/28 07:53:40;;;;;;;0.73;0.73;;;17.40;99.90;;;;;;5052243;28;20045;-65
2023/07/28 07:56:09;;;;;;;0.95;0.88;;;17.40;99.90;;;;;;5048035;28;20044;-65
2023/07/28 07:58:37;;;;;;;1.15;1.00;;;17.40;99.90;;;;;;5039608;28;20771;-68
2023/07/28 08:01:05;;;;;;;2.10;1.05;;;17.50;99.90;;;;;;5038985;28;20413;-60
2023/07/28 08:03:33;;;;;;;1.95;1.38;;;17.50;99.90;;;;;;5039083;28;20516;-64
2023/07/28 08:06:00;;;;;;;2.10;1.25;;;17.60;99.90;;;;;;5041128;28;20405;-61
2023/07/28 08:08:28;;;;;;;6.05;1.17;;;17.70;99.90;;;;;;5048691;28;20400;-64
2023/07/28 08:10:56;;;;;;;1.58;1.23;;;18.00;99.90;;;;;;5046217;28;20037;-67
2023/07/28 08:13:25;;;;;;;3.10;1.27;;;18.00;99.90;;;;;;5044404;28;20701;-65
2023/07/28 08:15:53;;;;;;;1.67;1.10;;;18.10;99.90;;;;;;5041618;28;20045;-63
2023/07/28 08:18:20;;;;;;;1.98;1.38;;;18.20;99.90;;;;;;5041072;28;20048;-59
2023/07/28 08:20:48;;;;;;;5.07;1.75;;;18.20;99.90;;;;;;5037094;28;20045;-60
2023/07/28 08:23:17;;;;;;;6.13;1.48;;;18.30;99.90;;;;;;5048585;28;20045;-59
2023/07/28 08:25:44;;;;;;;1.40;1.25;;;18.20;99.90;;;;;;5044889;28;20500;-61
2023/07/28 08:28:12;;;;;;;1.17;0.90;;;18.20;99.90;;;;;;5048172;28;20045;-62
2023/07/28 08:30:40;;;;;;;4.15;0.73;;;18.20;99.90;;;;;;5046802;28;20045;-65
2023/07/28 08:33:08;;;;;;;1.30;0.93;;;18.20;99.90;;;;;;5051610;28;20052;-65
2023/07/28 08:35:35;;;;;;;0.70;0.70;;;18.10;99.90;;;;;;5051897;28;20500;-65
2023/07/28 08:38:03;;;;;;;0.93;0.80;;;18.10;99.90;;;;;;5047771;28;20036;-58
2023/07/28 08:40:33;;;;;;;1.65;0.80;;;18.20;99.90;;;;;;5041305;28;20045;-56
2023/07/28 08:43:01;;;;;;;0.80;0.60;;;18.20;99.90;;;;;;5046928;28;20041;-59
2023/07/28 08:45:29;;;;;;;1.40;0.88;;;18.20;99.90;;;;;;5043955;28;20041;-65
2023/07/28 08:47:57;;;;;;;1.00;0.68;;;18.20;99.90;;;;;;5044462;28;20493;-65
2023/07/28 08:50:25;;;;;;;2.08;1.02;;;18.20;99.90;;;;;;5040660;28;20052;-64
2023/07/28 08:52:54;;;;;;;0.45;0.45;;;18.30;99.90;;;;;;5048711;28;20033;-58
2023/07/28 08:55:22;;;;;;;1.05;0.60;;;18.40;99.90;;;;;;5051405;28;20041;-57
2023/07/28 08:57:50;;;;;;;0.50;0.50;;;18.50;99.90;;;;;;5047956;28;20037;-57
2023/07/28 09:00:18;;;;;;;1.15;0.70;;;18.50;99.90;;;;;;5039790;28;20049;-61
2023/07/28 09:02:50;;;;;;;1.40;0.90;;;18.50;99.90;;;;;;5043895;28;20041;-56
2023/07/28 09:05:23;;;;;;;2.13;0.90;;;18.50;99.90;;;;;;5042587;28;20048;-57
2023/07/28 09:07:52;;;;;;;1.80;1.02;;;18.50;99.90;;;;;;5047658;28;20049;-57
2023/07/28 09:10:19;;;;;;;1.70;0.75;;;18.40;99.90;;;;;;5047631;28;20485;-57
2023/07/28 09:12:48;;;;;;;2.22;0.80;;;18.50;99.90;;;;;;5048605;28;20051;-60
2023/07/28 09:15:17;;;;;;;1.60;1.20;;;18.60;99.90;;;;;;5042198;28;20049;-57
2023/07/28 09:17:45;;;;;;;2.05;0.85;;;18.70;99.90;;;;;;5046085;28;20045;-57
2023/07/28 09:20:15;;;;;;;1.88;1.10;;;18.80;99.90;;;;;;5046685;28;20051;-64
2023/07/28 09:22:44;;;;;;;1.73;1.20;;;19.00;99.90;;;;;;5051708;28;20518;-63
2023/07/28 09:25:16;;;;;;;1.70;1.17;;;19.10;99.90;;;;;;5041616;28;20041;-63
2023/07/28 09:27:53;;;;;;;2.63;1.60;;;19.30;99.90;;;;;;5048739;28;20040;-62
2023/07/28 09:30:21;;;;;;;10.52;2.63;;;19.40;99.90;;;;;;5046187;28;20053;-60
2023/07/28 09:32:51;;;;;;;2.70;1.20;;;19.50;99.90;;;;;;5029687;28;20112;-58
2023/07/28 09:35:21;;;;;;;2.58;1.30;;;19.50;99.90;;;;;;5038931;28;20037;-64
2023/07/28 09:37:52;;;;;;;4.22;1.20;;;19.50;99.90;;;;;;5040009;28;20052;-65
2023/07/28 09:40:21;;;;;;;1.25;1.10;;;19.50;99.90;;;;;;5047975;28;20033;-63
2023/07/28 09:42:50;;;;;;;3.70;1.00;;;19.50;99.90;;;;;;5047290;28;20064;-64
2023/07/28 09:45:22;;;;;;;2.17;0.98;;;19.50;99.90;;;;;;5043574;28;20045;-64
2023/07/28 09:48:09;;;;;;;2.15;1.08;;;19.60;99.90;;;;;;5047222;28;20476;-64
2023/07/28 09:50:38;;;;;;;4.05;1.00;;;19.50;99.90;;;;;;5043533;28;20041;-61
2023/07/28 09:53:09;;;;;;;1.42;0.70;;;19.60;99.90;;;;;;5048092;28;20052;-63
2023/07/28 09:55:42;;;;;;;0.82;0.80;;;19.70;99.90;;;;;;5046348;28;20048;-65
2023/07/28 09:58:16;;;;;;;1.80;0.80;;;19.90;99.90;;;;;;5043406;28;20119;-65
2023/07/28 10:00:44;;;;;;;0.60;0.60;;;20.00;99.90;;;;;;5046823;28;20045;-65
2023/07/28 10:03:12;;;;;;;1.00;0.80;;;20.10;99.90;;;;;;5039409;28;20045;-63
2023/07/28 10:05:41;;;;;;;0.93;0.82;;;20.20;99.90;;;;;;5040699;28;20408;-65
2023/07/28 10:08:10;;;;;;;3.55;1.50;;;20.20;99.90;;;;;;5029034;28;20056;-65
2023/07/28 10:10:41;;;;;;;1.98;1.10;;;20.20;99.90;;;;;;5045719;28;20065;-65
2023/07/28 10:13:19;;;;;;;3.42;1.15;;;20.20;99.90;;;;;;5046204;28;20060;-63
2023/07/28 10:15:50;;;;;;;1.85;1.02;;;20.20;99.90;;;;;;5048016;28;20064;-65
2023/07/28 10:18:22;;;;;;;1.67;0.80;;;20.10;99.90;;;;;;5043980;28;20309;-58
2023/07/28 10:20:51;;;;;;;1.58;0.90;;;20.00;99.90;;;;;;5048364;28;20511;-58
2023/07/28 10:23:24;;;;;;;1.85;1.20;;;19.90;99.90;;;;;;5049283;28;20051;-59
2023/07/28 10:26:00;;;;;;;1.20;0.95;;;19.90;99.90;;;;;;5049343;28;20041;-58
2023/07/28 10:28:31;;;;;;;2.25;1.15;;;19.90;99.90;;;;;;5047272;28;20044;-59
2023/07/28 10:31:01;;;;;;;1.15;0.98;;;20.00;99.90;;;;;;5049330;28;20346;-59
2023/07/28 10:33:33;;;;;;;1.10;1.00;;;20.20;99.90;;;;;;5049572;28;20040;-58
2023/07/28 10:36:34;;;;;;;3.35;1.10;;;20.50;99.90;;;;;;5044668;28;20392;-60
2023/07/28 10:39:07;;;;;;;2.67;1.40;;;20.70;99.90;;;;;;5050516;28;20507;-56
2023/07/28 10:41:35;;;;;;;1.42;1.10;;;21.00;99.90;;;;;;5044635;28;20053;-58
2023/07/28 10:44:03;;;;;;;2.58;1.33;;;21.10;99.90;;;;;;5047399;28;20048;-56
2023/07/28 10:46:35;;;;;;;9.05;1.48;;;21.20;99.90;;;;;;5046186;28;20045;-56
2023/07/28 10:49:05;;;;;;;2.63;1.10;;;21.20;99.90;;;;;;5048028;28;20392;-58
2023/07/28 10:51:35;;;;;;;2.13;1.27;;;21.30;99.90;;;;;;5047742;28;20048;-56
2023/07/28 10:54:03;;;;;;;1.10;1.00;;;21.40;99.90;;;;;;5050332;28;20504;-57
2023/07/28 10:56:31;;;;;;;3.72;1.30;;;21.50;99.90;;;;;;5050518;28;20170;-57
2023/07/28 10:59:01;;;;;;;1.63;1.08;;;21.50;99.90;;;;;;5045636;28;20056;-60
2023/07/28 11:01:37;;;;;;;7.75;1.45;;;21.50;99.90;;;;;;5045929;28;20044;-56
2023/07/28 11:04:26;;;;;;;1.52;1.10;;;21.50;99.90;;;;;;5044682;28;20449;-61
2023/07/28 11:06:54;;;;;;;3.78;1.58;;;21.50;99.90;;;;;;5044023;28;20053;-58
2023/07/28 11:09:23;;;;;;;4.50;1.95;;;21.50;99.90;;;;;;5044110;28;20063;-59
2023/07/28 11:11:52;;;;;;;2.63;1.50;;;21.40;99.90;;;;;;5046161;28;20037;-61
2023/07/28 11:14:20;;;;;;;2.58;1.48;;;21.30;99.90;;;;;;5045321;28;20048;-64
2023/07/28 11:16:49;;;;;;;3.28;1.60;;;21.40;99.90;;;;;;5046300;28;20512;-60
2023/07/28 11:19:24;;;;;;;3.38;1.27;;;21.60;99.90;;;;;;5037148;28;20052;-56
2023/07/28 11:21:55;;;;;;;1.25;1.15;;;21.70;99.90;;;;;;5043982;28;20048;-59
2023/07/28 11:24:23;;;;;;;4.95;1.30;;;21.90;99.90;;;;;;5041192;28;20506;-62
2023/07/28 11:26:53;;;;;;;1.92;1.20;;;22.00;99.90;;;;;;5047009;28;20071;-65
2023/07/28 11:29:21;;;;;;;3.00;0.90;;;22.00;99.90;;;;;;5043839;28;20056;-64
2023/07/28 11:31:50;;;;;;;1.83;0.82;;;22.10;99.90;;;;;;5043499;28;20060;-64
2023/07/28 11:34:18;;;;;;;1.67;0.73;;;22.20;99.90;;;;;;5044399;28;20051;-64
2023/07/28 11:36:47;;;;;;;1.00;0.52;;;22.40;99.90;;;;;;5046367;28;20607;-65
2023/07/28 11:39:16;;;;;;;3.05;1.00;;;22.50;99.90;;;;;;5044345;28;20048;-64
2023/07/28 11:41:47;;;;;;;4.40;1.20;;;22.50;99.90;;;;;;5043696;28;20057;-59
2023/07/28 11:44:15;;;;;;;0.90;0.68;;;22.50;99.90;;;;;;5047915;28;20056;-62
2023/07/28 11:46:43;;;;;;;1.40;0.60;;;22.50;99.90;;;;;;5045587;28;20052;-64
2023/07/28 11:49:24;;;;;;;1.10;0.73;;;22.60;99.90;;;;;;5043333;28;20055;-57
2023/07/28 11:51:57;;;;;;;3.65;0.85;;;22.60;99.90;;;;;;5044184;28;20045;-60
2023/07/28 11:54:27;;;;;;;1.35;0.63;;;22.50;99.90;;;;;;5045752;28;20614;-56
2023/07/28 11:56:56;;;;;;;2.88;0.80;;;22.70;99.90;;;;;;5045360;28;20412;-62
2023/07/28 11:59:24;;;;;;;2.53;0.60;;;22.90;99.90;;;;;;5042593;28;20052;-61
2023/07/28 12:02:00;;;;;;;1.10;0.60;;;23.20;99.90;;;;;;5045986;28;20045;-64
2023/07/28 12:04:40;;;;;;;2.95;0.70;;;23.40;99.90;;;;;;5041899;28;20041;-62
2023/07/28 12:07:12;;;;;;;2.05;0.68;;;23.60;99.90;;;;;;5045819;28;20393;-64
2023/07/28 12:09:46;;;;;;;1.92;0.75;;;24.00;99.90;;;;;;5044581;28;20068;-61
2023/07/28 12:12:14;;;;;;;2.90;0.93;;;24.00;99.90;;;;;;5043182;28;20048;-66
2023/07/28 12:14:48;;;;;;;2.17;0.68;;;23.90;99.90;;;;;;5046737;28;20037;-63
2023/07/28 12:17:36;;;;;;;0.70;0.70;;;23.80;99.90;;;;;;5041241;28;20404;-61
2023/07/28 12:20:14;;;;;;;3.22;0.90;;;23.60;99.90;;;;;;5035535;28;20396;-62
2023/07/28 12:22:43;;;;;;;1.73;0.70;;;23.50;99.90;;;;;;5040895;28;20055;-63
2023/07/28 12:25:12;;;;;;;1.20;0.70;;;23.40;99.90;;;;;;5046094;28;20048;-65
2023/07/28 12:27:39;;;;;;;0.63;0.60;;;23.40;99.90;;;;;;5044241;28;20052;-66
2023/07/28 12:30:08;;;;;;;1.00;0.80;;;23.60;99.90;;;;;;5037992;28;20045;-66
2023/07/28 12:32:44;;;;;;;0.90;0.70;;;23.90;99.90;;;;;;5044162;28;20049;-66
2023/07/28 12:35:15;;;;;;;1.23;0.75;;;24.20;99.90;;;;;;5042243;28;20630;-65
2023/07/28 12:37:44;;;;;;;1.23;0.60;;;24.10;99.90;;;;;;5045429;28;20056;-66
2023/07/28 12:40:15;;;;;;;1.98;0.70;;;24.10;99.90;;;;;;5042958;28;20050;-64
2023/07/28 12:42:47;;;;;;;1.63;0.80;;;24.30;99.90;;;;;;5039798;28;20397;-65
2023/07/28 12:45:18;;;;;;;0.98;0.70;;;24.60;99.90;;;;;;5044072;28;20056;-57
2023/07/28 12:47:49;;;;;;;1.58;0.52;;;25.10;99.90;;;;;;5044952;28;20060;-68
2023/07/28 12:50:25;;;;;;;1.10;0.60;;;25.50;99.90;;;;;;5041675;28;20037;-62
2023/07/28 12:52:53;;;;;;;3.38;0.90;;;25.60;99.20;;;;;;5042390;28;20197;-59
2023/07/28 12:55:23;;;;;;;1.30;0.80;;;25.50;98.70;;;;;;5042489;28;20469;-57
2023/07/28 12:57:51;;;;;;;2.55;0.68;;;25.30;99.00;;;;;;5039359;28;20074;-60
2023/07/28 13:00:21;;;;;;;1.70;0.77;;;25.10;99.20;;;;;;5042334;28;20381;-60